Flight Track Log - Related Links

Times and Time Zones

All times are in EDT time to prevent confusion due to time zone crossing. See the VH-TXI flight status page for this flight to view local times or setup timezone preferences in your user account.

Time Position Orientation Groundspeed Altitude Reporting Facility
EDT Latitude Longitude Course Direction KTS MPH feet Rate Location/Type
Mon 07:34:00 PM -30.3206 153.1164 255° West  Level Estimated
Mon 07:34:00 PM -30.3164 153.1746 345° North 3,500  Level Aus ATC (Calculated)
Mon 07:35:00 PM -30.3223 153.1089 255° West  Level FlightAware Approximate
Mon 07:36:00 PM -30.3189 153.1593 259° West  Level FlightAware Approximate
Mon 07:37:00 PM -30.3202 153.1517 259° West  Level FlightAware Approximate
Mon 07:38:00 PM -30.3214 153.1440 259° West  Level FlightAware Approximate
Mon 07:39:00 PM -30.3227 153.1364 259° West  Level FlightAware Approximate
Mon 07:40:00 PM -30.3240 153.1288 259° West  Level FlightAware Approximate
Mon 07:41:00 PM -30.3252 153.1211 259° West  Level FlightAware Approximate
Mon 07:41:50 PM -30.3408 153.0267 40° Northeast 6,900  Level Aus ATC (Calculated)
Mon 07:42:00 PM -30.3206 153.1164 350° North  Level Estimated
Mon 07:43:00 PM -30.3199 153.1086 276° West  Level FlightAware Approximate
Mon 07:44:00 PM -30.3192 153.1009 276° West  Level FlightAware Approximate
Mon 07:45:00 PM -30.3185 153.0932 276° West  Level FlightAware Approximate
Mon 07:46:00 PM -30.3179 153.0854 276° West  Level FlightAware Approximate
Mon 07:46:35 PM -30.4126 153.1172 North 4,600  Level Aus ATC (Calculated)
Mon 07:47:00 PM -30.3156 153.0591 96° East  Level FlightAware Approximate
Mon 07:48:00 PM -30.3162 153.0668 96° East  Level FlightAware Approximate
Mon 07:49:00 PM -30.3964 153.1170 360° North  Level FlightAware Approximate
Mon 07:50:00 PM -30.3897 153.1170 360° North  Level FlightAware Approximate
Mon 07:51:00 PM -30.3830 153.1169 360° North  Level FlightAware Approximate
Mon 07:52:00 PM -30.3762 153.1168 360° North  Level FlightAware Approximate
Mon 07:53:00 PM -30.3695 153.1168 96° East  Level Estimated
Mon 07:54:00 PM -30.3628 153.1167 96° East  Level Estimated
Mon 07:55:00 PM -30.3561 153.1167 96° East  Level Estimated
Mon 07:56:00 PM -30.3494 153.1166 96° East  Level Estimated
Mon 07:56:15 PM -30.2210 153.1447 96° East 231 266 9,600  Level Aus ATC (RADAR)
Mon 07:57:00 PM -30.3427 153.1166 96° East  Level Estimated
Mon 07:58:15 PM -30.2643 153.1840 142° Southeast 128 147 10,100  Level Aus ATC (RADAR)
Mon 08:00:19 PM -30.2898 153.1488 230° Southwest 95 109 10,200 -383 Climbing Aus ATC (RADAR)
Mon 08:02:10 PM -30.3195 153.1259 214° Southwest 81 93 8,600 -865 Descending Aus ATC (RADAR)
Mon 08:04:00 PM -30.3186 153.1117 275° West  Level FlightAware Approximate
Mon 08:11:00 PM -30.3206 153.1164 96° East  Level Estimated
Mon 08:12:00 PM -30.3236 153.1095 243° Southwest  Level FlightAware Approximate
Mon 08:13:00 PM -30.3206 153.1164 63° Northeast  Level FlightAware Approximate
Mon 08:14:00 PM -30.3236 153.1095 243° Southwest  Level FlightAware Approximate
Mon 08:15:00 PM -30.3206 153.1164 63° Northeast  Level FlightAware Approximate

Login

Don't have an account? Register now (free) for customized features, flight alerts, and more!